TimeAKST,TemperatureF,Dew PointF,Humidity,Sea Level PressureIn,VisibilityMPH,Wind Direction,Wind SpeedMPH,Gust SpeedMPH,PrecipitationIn,Events,Conditions,WindDirDegrees,DateUTC
12:53 AM,39.0,37.0,93,30.10,10.0,ESE,6.9,-,N/A,,Scattered Clouds,120,2014-01-19 09:53:00
1:53 AM,39.0,36.0,89,30.12,10.0,ESE,8.1,-,N/A,,Scattered Clouds,120,2014-01-19 10:53:00
2:53 AM,37.9,36.0,93,30.12,10.0,East,6.9,-,N/A,,Mostly Cloudy,100,2014-01-19 11:53:00
3:53 AM,39.0,36.0,89,30.12,10.0,ESE,9.2,-,N/A,,Mostly Cloudy,110,2014-01-19 12:53:00
4:53 AM,39.9,35.1,83,30.12,10.0,ESE,9.2,-,N/A,,Mostly Cloudy,110,2014-01-19 13:53:00
5:53 AM,39.9,35.1,83,30.13,10.0,East,9.2,-,N/A,,Overcast,100,2014-01-19 14:53:00
6:53 AM,39.0,36.0,89,30.13,10.0,Calm,Calm,-,N/A,,Overcast,0,2014-01-19 15:53:00
7:53 AM,37.0,34.0,89,30.13,10.0,East,6.9,-,N/A,,Overcast,90,2014-01-19 16:53:00
8:53 AM,39.0,34.0,82,30.13,10.0,ESE,8.1,-,N/A,,Overcast,120,2014-01-19 17:53:00
9:53 AM,39.0,34.0,82,30.14,10.0,NE,4.6,-,N/A,,Mostly Cloudy,50,2014-01-19 18:53:00
10:53 AM,39.9,36.0,86,30.17,10.0,Calm,Calm,-,N/A,,Mostly Cloudy,0,2014-01-19 19:53:00
11:53 AM,44.1,34.0,68,30.16,10.0,East,9.2,-,N/A,,Overcast,100,2014-01-19 20:53:00
12:53 PM,44.1,33.1,65,30.16,10.0,ESE,12.7,-,N/A,,Overcast,110,2014-01-19 21:53:00
1:53 PM,45.0,30.9,58,30.16,10.0,ESE,12.7,-,N/A,,Overcast,110,2014-01-19 22:53:00
2:53 PM,44.1,30.9,60,30.15,10.0,ESE,11.5,-,N/A,,Mostly Cloudy,120,2014-01-19 23:53:00
3:53 PM,44.1,32.0,63,30.14,10.0,ESE,12.7,-,N/A,,Overcast,120,2014-01-20 00:53:00
4:53 PM,44.1,30.9,60,30.14,10.0,ESE,10.4,-,N/A,,Scattered Clouds,110,2014-01-20 01:53:00
5:53 PM,44.1,32.0,63,30.13,10.0,ESE,11.5,-,N/A,,Scattered Clouds,120,2014-01-20 02:53:00
6:53 PM,45.0,32.0,60,30.12,10.0,ESE,13.8,-,N/A,,Overcast,110,2014-01-20 03:53:00
7:53 PM,44.1,34.0,68,30.14,10.0,East,16.1,-,0.00,Rain,Light Rain,100,2014-01-20 04:53:00
8:53 PM,43.0,37.0,80,30.15,10.0,ESE,12.7,-,0.02,Rain,Light Rain,120,2014-01-20 05:53:00
9:53 PM,43.0,36.0,76,30.15,10.0,ESE,16.1,-,0.02,Rain,Light Rain,110,2014-01-20 06:53:00
10:53 PM,43.0,37.0,80,30.16,10.0,East,11.5,-,0.03,Rain,Light Rain,100,2014-01-20 07:53:00
11:53 PM,43.0,37.9,82,30.15,8.0,ESE,11.5,-,0.03,Rain,Light Rain,110,2014-01-20 08:53:00